Lakeland, FL

6:34 AM EST on February 11, 2016 (GMT -0500)
Hawks Ridge | | Change Station
CLOSE
Current Station
Personal Weather Station
Location: Lakeland, FL
Elevation: 140 ft
Nearby Weather Stations
Active Advisory: Frost Advisory

Elev 140 ft 28.11 °N, 82.01 °W | Updated 36 seconds ago

Clear
Clear
32.1 °F
Feels Like 32 °F
N
0.0
Wind Variable Wind from NW
Gusts 0.0 mph

Today
High -- | Low -- °F
--% Chance of Precip.
Yesterday
High -- | Low -- °F
Precip. -- in
Pressure 30.29 in
Visibility 10.0 miles
Clouds Clear
Windchill 32 °F
Dew Point 28 °F
Humidity 86%
Rainfall 0.00 in
Snow Depth Not available.
7:09 AM 6:15 PM
Waxing Crescent, 11% visible
METAR KLAL 111050Z 00000KT 10SM SKC 02/01 A3029 RMK FIRST
Pressure 30.29 in
Visibility 10.0 miles
Clouds Clear
Windchill 32 °F
Dew Point 28 °F
Humidity 86%
Rainfall 0.00 in
Snow Depth Not available.
7:09 AM 6:15 PM
Waxing Crescent, 11% visible
METAR KLAL 111050Z 00000KT 10SM SKC 02/01 A3029 RMK FIRST

10-Day Weather Forecast

Almanac

Astronomy

Feb. 11, 2016 Rise Set
Actual Time
Civil Twilight
Nautical Twilight
Astronomical Twilight
Moon
Length of Visible Light
Length of Day
Tomorrow will be .
, % of the Moon is Illuminated

Today's Extremes

State Highs State Lows

Community

WunderPhotos

Upload Photos

1,892,030 photos uploaded!

WunderBlog® & News

Nearby

Air Quality

  Air Quality AQ Index Pollutant
Not available.

Snow Depth

Station Depth Elevation

Earthquake Activity

City Distance Mag. Time & Date
Minimum magnitude displayed is 2.5.

Coastal Water Temperatures

Place Temperature

Stations

Nearby Weather Stations

Station Location Temp. Windchill Dew Point Humidity Wind Precip. Elev Updated Type
                   

Watches & Warnings

Frost Advisory
Issued: 9:49 PM EST Feb. 10, 2016 – National Weather Service

... Frost advisory remains in effect from 3 am to 9 am EST
Thursday...

* temperature... 33 to 36.

* Impacts... sensitive plants may be killed.

Precautionary/preparedness actions...

A frost advisory means that frost is possible. Sensitive outdoor
plants may be killed if left uncovered. Consider brining your
pets inside.